sensor_id;sensor_type;location;lat;lon;timestamp;temperature;humidity
72277;SHT30;61204;49.980;8.358;2022-07-29T00:01:16;21.88;44.93
72277;SHT30;61204;49.980;8.358;2022-07-29T00:03:42;21.86;44.89
72277;SHT30;61204;49.980;8.358;2022-07-29T00:06:07;21.90;44.96
72277;SHT30;61204;49.980;8.358;2022-07-29T00:08:37;21.99;44.48
72277;SHT30;61204;49.980;8.358;2022-07-29T00:11:05;22.21;43.92
72277;SHT30;61204;49.980;8.358;2022-07-29T00:13:31;22.30;44.85
72277;SHT30;61204;49.980;8.358;2022-07-29T00:15:56;22.25;47.38
72277;SHT30;61204;49.980;8.358;2022-07-29T00:18:25;22.23;45.71
72277;SHT30;61204;49.980;8.358;2022-07-29T00:20:53;22.18;45.66
72277;SHT30;61204;49.980;8.358;2022-07-29T00:23:21;22.18;46.02
72277;SHT30;61204;49.980;8.358;2022-07-29T00:25:51;22.12;45.18
72277;SHT30;61204;49.980;8.358;2022-07-29T00:28:19;22.10;45.53
72277;SHT30;61204;49.980;8.358;2022-07-29T00:30:45;22.09;45.08
72277;SHT30;61204;49.980;8.358;2022-07-29T00:33:10;22.13;44.83
72277;SHT30;61204;49.980;8.358;2022-07-29T00:35:36;22.12;44.80
72277;SHT30;61204;49.980;8.358;2022-07-29T00:38:16;22.24;44.38
72277;SHT30;61204;49.980;8.358;2022-07-29T00:40:47;22.18;44.17
72277;SHT30;61204;49.980;8.358;2022-07-29T00:43:17;22.18;43.80
72277;SHT30;61204;49.980;8.358;2022-07-29T00:45:43;22.24;43.58
72277;SHT30;61204;49.980;8.358;2022-07-29T00:48:09;22.31;43.09
72277;SHT30;61204;49.980;8.358;2022-07-29T00:50:36;22.30;43.02
72277;SHT30;61204;49.980;8.358;2022-07-29T00:53:06;22.43;42.53
72277;SHT30;61204;49.980;8.358;2022-07-29T00:55:34;22.52;41.94
72277;SHT30;61204;49.980;8.358;2022-07-29T00:58:03;22.51;42.24
72277;SHT30;61204;49.980;8.358;2022-07-29T01:00:29;22.52;42.03
72277;SHT30;61204;49.980;8.358;2022-07-29T01:02:55;22.43;42.23
72277;SHT30;61204;49.980;8.358;2022-07-29T01:05:26;22.48;42.14
72277;SHT30;61204;49.980;8.358;2022-07-29T01:07:56;22.40;42.33
72277;SHT30;61204;49.980;8.358;2022-07-29T01:10:23;22.43;42.35
72277;SHT30;61204;49.980;8.358;2022-07-29T01:12:52;22.27;42.69
72277;SHT30;61204;49.980;8.358;2022-07-29T01:15:24;22.36;42.30
72277;SHT30;61204;49.980;8.358;2022-07-29T01:30:36;22.38;46.85
72277;SHT30;61204;49.980;8.358;2022-07-29T01:33:10;22.17;49.52
72277;SHT30;61204;49.980;8.358;2022-07-29T01:36:07;21.96;47.69
72277;SHT30;61204;49.980;8.358;2022-07-29T01:38:45;21.86;45.88
72277;SHT30;61204;49.980;8.358;2022-07-29T01:41:23;21.92;44.95
72277;SHT30;61204;49.980;8.358;2022-07-29T01:43:56;21.90;44.84
72277;SHT30;61204;49.980;8.358;2022-07-29T01:46:33;21.81;45.09
72277;SHT30;61204;49.980;8.358;2022-07-29T01:49:10;21.71;46.08
72277;SHT30;61204;49.980;8.358;2022-07-29T01:51:59;21.68;48.02
72277;SHT30;61204;49.980;8.358;2022-07-29T01:54:40;21.38;55.20
72277;SHT30;61204;49.980;8.358;2022-07-29T01:57:16;21.08;56.62
72277;SHT30;61204;49.980;8.358;2022-07-29T01:59:47;20.85;56.82
72277;SHT30;61204;49.980;8.358;2022-07-29T02:02:16;20.68;55.79
72277;SHT30;61204;49.980;8.358;2022-07-29T02:04:48;20.59;56.53
72277;SHT30;61204;49.980;8.358;2022-07-29T02:07:21;20.53;56.22
72277;SHT30;61204;49.980;8.358;2022-07-29T02:09:52;20.52;55.94
72277;SHT30;61204;49.980;8.358;2022-07-29T02:12:25;20.56;57.91
72277;SHT30;61204;49.980;8.358;2022-07-29T02:14:59;20.49;60.40
72277;SHT30;61204;49.980;8.358;2022-07-29T02:17:41;20.31;60.97
72277;SHT30;61204;49.980;8.358;2022-07-29T02:20:12;20.17;60.92
72277;SHT30;61204;49.980;8.358;2022-07-29T02:22:40;20.01;60.26
72277;SHT30;61204;49.980;8.358;2022-07-29T02:25:10;19.92;59.68
72277;SHT30;61204;49.980;8.358;2022-07-29T02:27:39;19.86;58.34
72277;SHT30;61204;49.980;8.358;2022-07-29T02:30:07;19.92;56.36
72277;SHT30;61204;49.980;8.358;2022-07-29T02:32:37;20.03;55.49
72277;SHT30;61204;49.980;8.358;2022-07-29T02:35:12;20.10;53.34
72277;SHT30;61204;49.980;8.358;2022-07-29T02:37:43;20.14;53.34
72277;SHT30;61204;49.980;8.358;2022-07-29T02:40:33;20.14;51.83
72277;SHT30;61204;49.980;8.358;2022-07-29T02:43:03;20.23;51.53
72277;SHT30;61204;49.980;8.358;2022-07-29T02:45:34;20.12;51.81
72277;SHT30;61204;49.980;8.358;2022-07-29T02:48:07;20.17;51.32
72277;SHT30;61204;49.980;8.358;2022-07-29T02:51:17;20.12;51.22
72277;SHT30;61204;49.980;8.358;2022-07-29T02:53:53;20.03;51.65
72277;SHT30;61204;49.980;8.358;2022-07-29T02:56:27;19.93;51.87
72277;SHT30;61204;49.980;8.358;2022-07-29T02:59:11;19.94;52.13
72277;SHT30;61204;49.980;8.358;2022-07-29T03:01:43;19.94;52.12
72277;SHT30;61204;49.980;8.358;2022-07-29T03:04:14;20.00;52.18
72277;SHT30;61204;49.980;8.358;2022-07-29T03:06:46;20.12;51.94
72277;SHT30;61204;49.980;8.358;2022-07-29T03:09:14;20.17;51.75
72277;SHT30;61204;49.980;8.358;2022-07-29T03:11:42;20.13;51.84
72277;SHT30;61204;49.980;8.358;2022-07-29T03:14:12;20.10;52.23
72277;SHT30;61204;49.980;8.358;2022-07-29T03:16:39;20.06;52.37
72277;SHT30;61204;49.980;8.358;2022-07-29T03:19:05;20.13;52.10
72277;SHT30;61204;49.980;8.358;2022-07-29T03:21:33;20.20;51.92
72277;SHT30;61204;49.980;8.358;2022-07-29T03:23:59;20.07;52.14
72277;SHT30;61204;49.980;8.358;2022-07-29T03:26:25;20.20;52.09
72277;SHT30;61204;49.980;8.358;2022-07-29T03:28:51;20.28;52.11
72277;SHT30;61204;49.980;8.358;2022-07-29T03:31:16;20.25;52.40
72277;SHT30;61204;49.980;8.358;2022-07-29T03:33:44;20.20;52.81
72277;SHT30;61204;49.980;8.358;2022-07-29T03:36:10;20.13;53.15
72277;SHT30;61204;49.980;8.358;2022-07-29T03:38:37;20.07;53.53
72277;SHT30;61204;49.980;8.358;2022-07-29T03:41:09;20.16;53.64
72277;SHT30;61204;49.980;8.358;2022-07-29T03:43:40;20.18;53.93
72277;SHT30;61204;49.980;8.358;2022-07-29T03:46:10;20.09;54.37
72277;SHT30;61204;49.980;8.358;2022-07-29T03:48:42;20.00;54.76
72277;SHT30;61204;49.980;8.358;2022-07-29T03:51:12;19.93;55.15
72277;SHT30;61204;49.980;8.358;2022-07-29T03:53:44;19.90;55.23
72277;SHT30;61204;49.980;8.358;2022-07-29T03:56:15;19.94;55.22
72277;SHT30;61204;49.980;8.358;2022-07-29T03:58:43;19.90;55.43
72277;SHT30;61204;49.980;8.358;2022-07-29T04:01:10;19.83;55.77
72277;SHT30;61204;49.980;8.358;2022-07-29T04:03:39;19.82;56.03
72277;SHT30;61204;49.980;8.358;2022-07-29T04:06:06;19.72;56.35
72277;SHT30;61204;49.980;8.358;2022-07-29T04:08:35;19.82;56.21
72277;SHT30;61204;49.980;8.358;2022-07-29T04:11:05;19.75;56.42
72277;SHT30;61204;49.980;8.358;2022-07-29T04:13:33;19.73;56.64
72277;SHT30;61204;49.980;8.358;2022-07-29T04:15:59;19.65;56.84
72277;SHT30;61204;49.980;8.358;2022-07-29T04:18:25;19.61;57.10
72277;SHT30;61204;49.980;8.358;2022-07-29T04:20:51;19.59;56.98
72277;SHT30;61204;49.980;8.358;2022-07-29T04:23:16;19.63;56.90
72277;SHT30;61204;49.980;8.358;2022-07-29T04:25:42;19.61;56.85
72277;SHT30;61204;49.980;8.358;2022-07-29T04:28:09;19.61;56.94
72277;SHT30;61204;49.980;8.358;2022-07-29T04:30:38;19.61;57.02
72277;SHT30;61204;49.980;8.358;2022-07-29T04:33:08;19.51;57.42
72277;SHT30;61204;49.980;8.358;2022-07-29T04:35:36;19.47;57.87
72277;SHT30;61204;49.980;8.358;2022-07-29T04:38:04;19.41;58.35
72277;SHT30;61204;49.980;8.358;2022-07-29T04:40:34;19.58;58.52
72277;SHT30;61204;49.980;8.358;2022-07-29T04:43:02;19.63;58.34
72277;SHT30;61204;49.980;8.358;2022-07-29T04:45:28;19.65;58.52
72277;SHT30;61204;49.980;8.358;2022-07-29T04:47:54;19.68;58.82
72277;SHT30;61204;49.980;8.358;2022-07-29T04:50:21;19.73;58.81
72277;SHT30;61204;49.980;8.358;2022-07-29T04:52:49;19.79;58.66
72277;SHT30;61204;49.980;8.358;2022-07-29T04:55:15;19.89;58.44
72277;SHT30;61204;49.980;8.358;2022-07-29T04:57:40;19.94;58.40
72277;SHT30;61204;49.980;8.358;2022-07-29T05:00:07;20.06;58.07
72277;SHT30;61204;49.980;8.358;2022-07-29T05:02:33;20.27;57.46
72277;SHT30;61204;49.980;8.358;2022-07-29T05:05:04;20.41;57.48
72277;SHT30;61204;49.980;8.358;2022-07-29T05:07:33;20.61;57.73
72277;SHT30;61204;49.980;8.358;2022-07-29T05:09:58;20.73;57.50
72277;SHT30;61204;49.980;8.358;2022-07-29T05:12:26;20.97;57.34
72277;SHT30;61204;49.980;8.358;2022-07-29T05:14:54;21.14;57.14
72277;SHT30;61204;49.980;8.358;2022-07-29T05:17:20;21.31;57.28
72277;SHT30;61204;49.980;8.358;2022-07-29T05:19:46;21.44;56.53
72277;SHT30;61204;49.980;8.358;2022-07-29T05:22:12;21.59;56.58
72277;SHT30;61204;49.980;8.358;2022-07-29T05:24:38;21.61;56.09
72277;SHT30;61204;49.980;8.358;2022-07-29T05:27:03;21.74;55.91
72277;SHT30;61204;49.980;8.358;2022-07-29T05:29:29;21.93;55.25
72277;SHT30;61204;49.980;8.358;2022-07-29T05:31:57;21.95;54.92
72277;SHT30;61204;49.980;8.358;2022-07-29T05:34:22;21.95;54.78
72277;SHT30;61204;49.980;8.358;2022-07-29T05:36:51;22.07;54.79
72277;SHT30;61204;49.980;8.358;2022-07-29T05:39:19;22.17;54.65
72277;SHT30;61204;49.980;8.358;2022-07-29T05:41:45;22.13;55.21
72277;SHT30;61204;49.980;8.358;2022-07-29T05:44:11;22.24;55.03
72277;SHT30;61204;49.980;8.358;2022-07-29T05:46:38;22.68;53.92
72277;SHT30;61204;49.980;8.358;2022-07-29T05:49:05;22.76;53.39
72277;SHT30;61204;49.980;8.358;2022-07-29T05:51:34;23.13;53.07
72277;SHT30;61204;49.980;8.358;2022-07-29T05:54:02;22.99;52.27
72277;SHT30;61204;49.980;8.358;2022-07-29T05:56:28;23.28;51.49
72277;SHT30;61204;49.980;8.358;2022-07-29T05:59:01;23.27;50.60
72277;SHT30;61204;49.980;8.358;2022-07-29T06:01:26;23.28;51.04
72277;SHT30;61204;49.980;8.358;2022-07-29T06:03:57;23.50;50.29
72277;SHT30;61204;49.980;8.358;2022-07-29T06:06:27;23.71;49.76
72277;SHT30;61204;49.980;8.358;2022-07-29T06:08:55;24.44;48.63
72277;SHT30;61204;49.980;8.358;2022-07-29T06:11:23;24.58;47.29
72277;SHT30;61204;49.980;8.358;2022-07-29T06:13:48;24.82;46.69
72277;SHT30;61204;49.980;8.358;2022-07-29T06:16:14;25.17;46.30
72277;SHT30;61204;49.980;8.358;2022-07-29T06:18:42;25.71;45.19
72277;SHT30;61204;49.980;8.358;2022-07-29T06:21:09;25.58;44.61
72277;SHT30;61204;49.980;8.358;2022-07-29T06:23:37;25.88;44.03
72277;SHT30;61204;49.980;8.358;2022-07-29T06:26:06;26.32;43.32
72277;SHT30;61204;49.980;8.358;2022-07-29T06:28:32;26.20;42.34
72277;SHT30;61204;49.980;8.358;2022-07-29T06:30:59;25.95;41.53
72277;SHT30;61204;49.980;8.358;2022-07-29T06:33:24;25.44;43.39
72277;SHT30;61204;49.980;8.358;2022-07-29T06:35:50;25.47;42.42
72277;SHT30;61204;49.980;8.358;2022-07-29T06:38:18;25.13;42.80
72277;SHT30;61204;49.980;8.358;2022-07-29T06:40:44;24.98;42.83
72277;SHT30;61204;49.980;8.358;2022-07-29T06:43:33;25.40;42.10
72277;SHT30;61204;49.980;8.358;2022-07-29T06:46:04;26.33;40.30
72277;SHT30;61204;49.980;8.358;2022-07-29T06:48:32;26.37;39.70
72277;SHT30;61204;49.980;8.358;2022-07-29T06:50:59;26.61;39.68
72277;SHT30;61204;49.980;8.358;2022-07-29T06:53:26;26.67;39.10
72277;SHT30;61204;49.980;8.358;2022-07-29T06:55:54;27.16;38.99
72277;SHT30;61204;49.980;8.358;2022-07-29T06:58:20;27.16;38.64
72277;SHT30;61204;49.980;8.358;2022-07-29T07:00:48;27.25;37.95
72277;SHT30;61204;49.980;8.358;2022-07-29T07:03:16;27.26;39.28
72277;SHT30;61204;49.980;8.358;2022-07-29T07:05:43;27.82;37.96
72277;SHT30;61204;49.980;8.358;2022-07-29T07:08:10;28.64;36.90
72277;SHT30;61204;49.980;8.358;2022-07-29T07:10:36;28.92;36.74
72277;SHT30;61204;49.980;8.358;2022-07-29T07:13:04;28.90;36.29
72277;SHT30;61204;49.980;8.358;2022-07-29T07:15:30;28.36;36.86
72277;SHT30;61204;49.980;8.358;2022-07-29T07:17:56;29.30;35.71
72277;SHT30;61204;49.980;8.358;2022-07-29T07:20:23;29.71;35.25
72277;SHT30;61204;49.980;8.358;2022-07-29T07:22:49;29.59;35.06
72277;SHT30;61204;49.980;8.358;2022-07-29T07:25:15;30.26;34.10
72277;SHT30;61204;49.980;8.358;2022-07-29T07:27:43;30.18;34.02
72277;SHT30;61204;49.980;8.358;2022-07-29T07:30:10;31.21;33.51
72277;SHT30;61204;49.980;8.358;2022-07-29T07:32:39;29.77;34.55
72277;SHT30;61204;49.980;8.358;2022-07-29T07:35:06;29.25;34.82
72277;SHT30;61204;49.980;8.358;2022-07-29T07:37:34;30.64;33.72
72277;SHT30;61204;49.980;8.358;2022-07-29T07:40:04;31.49;32.56
72277;SHT30;61204;49.980;8.358;2022-07-29T07:42:30;31.62;31.83
72277;SHT30;61204;49.980;8.358;2022-07-29T07:44:56;30.60;33.28
72277;SHT30;61204;49.980;8.358;2022-07-29T07:47:30;31.42;33.20
72277;SHT30;61204;49.980;8.358;2022-07-29T07:49:55;32.07;31.49
72277;SHT30;61204;49.980;8.358;2022-07-29T07:52:21;32.25;31.25
72277;SHT30;61204;49.980;8.358;2022-07-29T07:54:48;33.21;30.26
72277;SHT30;61204;49.980;8.358;2022-07-29T07:57:15;33.25;30.24
72277;SHT30;61204;49.980;8.358;2022-07-29T07:59:43;33.04;30.40
72277;SHT30;61204;49.980;8.358;2022-07-29T08:02:11;32.79;30.35
72277;SHT30;61204;49.980;8.358;2022-07-29T08:04:37;32.25;31.24
72277;SHT30;61204;49.980;8.358;2022-07-29T08:07:06;33.58;30.59
72277;SHT30;61204;49.980;8.358;2022-07-29T08:09:34;33.85;29.20
72277;SHT30;61204;49.980;8.358;2022-07-29T08:12:01;34.97;28.69
72277;SHT30;61204;49.980;8.358;2022-07-29T08:14:32;34.73;28.30
72277;SHT30;61204;49.980;8.358;2022-07-29T08:17:00;33.96;29.13
72277;SHT30;61204;49.980;8.358;2022-07-29T08:19:29;35.03;28.53
72277;SHT30;61204;49.980;8.358;2022-07-29T08:21:55;35.52;28.10
72277;SHT30;61204;49.980;8.358;2022-07-29T08:24:22;36.37;27.41
72277;SHT30;61204;49.980;8.358;2022-07-29T08:27:06;35.52;27.89
72277;SHT30;61204;49.980;8.358;2022-07-29T08:29:32;36.33;27.33
72277;SHT30;61204;49.980;8.358;2022-07-29T08:31:58;36.06;27.42
72277;SHT30;61204;49.980;8.358;2022-07-29T08:34:26;36.00;27.41
72277;SHT30;61204;49.980;8.358;2022-07-29T08:36:51;37.02;26.62
72277;SHT30;61204;49.980;8.358;2022-07-29T08:39:17;36.88;27.05
72277;SHT30;61204;49.980;8.358;2022-07-29T08:41:43;36.31;27.13
72277;SHT30;61204;49.980;8.358;2022-07-29T08:44:09;35.71;27.89
72277;SHT30;61204;49.980;8.358;2022-07-29T08:46:37;35.64;27.81
72277;SHT30;61204;49.980;8.358;2022-07-29T08:49:07;36.03;27.59
72277;SHT30;61204;49.980;8.358;2022-07-29T08:51:36;36.70;26.57
72277;SHT30;61204;49.980;8.358;2022-07-29T08:54:05;36.10;27.57
72277;SHT30;61204;49.980;8.358;2022-07-29T08:56:34;36.48;27.09
72277;SHT30;61204;49.980;8.358;2022-07-29T08:59:05;38.23;25.56
72277;SHT30;61204;49.980;8.358;2022-07-29T09:01:37;39.66;24.68
72277;SHT30;61204;49.980;8.358;2022-07-29T09:04:10;39.09;25.31
72277;SHT30;61204;49.980;8.358;2022-07-29T09:06:42;37.88;25.86
72277;SHT30;61204;49.980;8.358;2022-07-29T09:09:10;38.15;25.72
72277;SHT30;61204;49.980;8.358;2022-07-29T09:11:37;37.96;26.68
72277;SHT30;61204;49.980;8.358;2022-07-29T09:14:03;39.67;24.68
72277;SHT30;61204;49.980;8.358;2022-07-29T09:16:45;40.48;24.14
72277;SHT30;61204;49.980;8.358;2022-07-29T09:19:25;38.46;25.43
72277;SHT30;61204;49.980;8.358;2022-07-29T09:21:58;37.43;26.37
72277;SHT30;61204;49.980;8.358;2022-07-29T09:27:21;40.09;24.43
72277;SHT30;61204;49.980;8.358;2022-07-29T09:30:05;40.52;24.19
72277;SHT30;61204;49.980;8.358;2022-07-29T09:32:33;40.27;24.84
72277;SHT30;61204;49.980;8.358;2022-07-29T09:35:23;40.33;24.54
72277;SHT30;61204;49.980;8.358;2022-07-29T09:37:52;40.52;24.38
72277;SHT30;61204;49.980;8.358;2022-07-29T09:40:26;40.49;24.27
72277;SHT30;61204;49.980;8.358;2022-07-29T09:42:54;39.47;24.74
72277;SHT30;61204;49.980;8.358;2022-07-29T09:45:31;40.21;23.98
72277;SHT30;61204;49.980;8.358;2022-07-29T09:48:21;39.83;24.47
72277;SHT30;61204;49.980;8.358;2022-07-29T09:50:49;39.08;25.80
72277;SHT30;61204;49.980;8.358;2022-07-29T09:56:01;37.70;27.04
72277;SHT30;61204;49.980;8.358;2022-07-29T09:58:27;39.18;25.24
72277;SHT30;61204;49.980;8.358;2022-07-29T10:00:56;40.55;25.07
72277;SHT30;61204;49.980;8.358;2022-07-29T10:03:23;40.21;25.32
72277;SHT30;61204;49.980;8.358;2022-07-29T10:06:09;40.11;25.59
72277;SHT30;61204;49.980;8.358;2022-07-29T10:08:37;40.07;25.77
72277;SHT30;61204;49.980;8.358;2022-07-29T10:11:17;41.22;24.58
72277;SHT30;61204;49.980;8.358;2022-07-29T10:13:47;41.35;24.35
72277;SHT30;61204;49.980;8.358;2022-07-29T10:16:15;41.04;24.99
72277;SHT30;61204;49.980;8.358;2022-07-29T10:18:45;39.61;25.73
72277;SHT30;61204;49.980;8.358;2022-07-29T10:21:13;39.32;25.94
72277;SHT30;61204;49.980;8.358;2022-07-29T10:23:42;40.14;26.04
72277;SHT30;61204;49.980;8.358;2022-07-29T10:26:11;41.53;24.86
72277;SHT30;61204;49.980;8.358;2022-07-29T10:28:37;42.39;24.01
72277;SHT30;61204;49.980;8.358;2022-07-29T10:31:06;43.86;22.77
72277;SHT30;61204;49.980;8.358;2022-07-29T10:33:54;40.68;24.87
72277;SHT30;61204;49.980;8.358;2022-07-29T10:42:57;42.01;24.12
72277;SHT30;61204;49.980;8.358;2022-07-29T10:45:34;41.76;24.78
72277;SHT30;61204;49.980;8.358;2022-07-29T10:48:04;41.93;24.03
72277;SHT30;61204;49.980;8.358;2022-07-29T10:53:51;43.17;23.75
72277;SHT30;61204;49.980;8.358;2022-07-29T10:56:31;42.99;23.54
72277;SHT30;61204;49.980;8.358;2022-07-29T11:01:46;43.73;23.02
72277;SHT30;61204;49.980;8.358;2022-07-29T11:04:13;44.40;22.12
72277;SHT30;61204;49.980;8.358;2022-07-29T11:09:29;40.45;25.29
72277;SHT30;61204;49.980;8.358;2022-07-29T11:11:58;42.90;23.41
72277;SHT30;61204;49.980;8.358;2022-07-29T11:17:22;41.59;24.65
72277;SHT30;61204;49.980;8.358;2022-07-29T11:19:51;41.10;24.81
72277;SHT30;61204;49.980;8.358;2022-07-29T11:22:34;39.11;26.41
72277;SHT30;61204;49.980;8.358;2022-07-29T11:25:17;40.02;25.95
72277;SHT30;61204;49.980;8.358;2022-07-29T11:27:45;41.05;24.92
72277;SHT30;61204;49.980;8.358;2022-07-29T11:30:10;41.15;25.22
72277;SHT30;61204;49.980;8.358;2022-07-29T11:32:43;41.97;24.33
72277;SHT30;61204;49.980;8.358;2022-07-29T11:35:23;41.59;24.20
72277;SHT30;61204;49.980;8.358;2022-07-29T11:38:25;40.95;24.73
72277;SHT30;61204;49.980;8.358;2022-07-29T11:41:30;41.91;24.34
72277;SHT30;61204;49.980;8.358;2022-07-29T11:44:01;40.66;24.95
72277;SHT30;61204;49.980;8.358;2022-07-29T11:46:49;38.85;26.48
72277;SHT30;61204;49.980;8.358;2022-07-29T11:49:24;38.15;27.16
72277;SHT30;61204;49.980;8.358;2022-07-29T11:51:57;39.12;26.52
72277;SHT30;61204;49.980;8.358;2022-07-29T11:54:33;39.46;26.10
72277;SHT30;61204;49.980;8.358;2022-07-29T11:57:00;39.91;25.50
72277;SHT30;61204;49.980;8.358;2022-07-29T11:59:26;39.76;26.06
72277;SHT30;61204;49.980;8.358;2022-07-29T12:01:57;41.08;24.55
72277;SHT30;61204;49.980;8.358;2022-07-29T12:04:26;42.25;23.92
72277;SHT30;61204;49.980;8.358;2022-07-29T12:06:58;43.21;23.33
72277;SHT30;61204;49.980;8.358;2022-07-29T12:09:24;43.88;22.96
72277;SHT30;61204;49.980;8.358;2022-07-29T12:11:56;41.41;24.30
72277;SHT30;61204;49.980;8.358;2022-07-29T12:14:32;39.06;26.06
72277;SHT30;61204;49.980;8.358;2022-07-29T12:16:59;39.64;26.09
72277;SHT30;61204;49.980;8.358;2022-07-29T12:19:26;40.01;26.13
72277;SHT30;61204;49.980;8.358;2022-07-29T12:21:56;41.20;24.71
72277;SHT30;61204;49.980;8.358;2022-07-29T12:24:24;41.80;24.07
72277;SHT30;61204;49.980;8.358;2022-07-29T12:26:52;41.35;24.77
72277;SHT30;61204;49.980;8.358;2022-07-29T12:29:21;40.25;25.79
72277;SHT30;61204;49.980;8.358;2022-07-29T12:31:53;39.66;26.08
72277;SHT30;61204;49.980;8.358;2022-07-29T12:34:26;38.53;26.87
72277;SHT30;61204;49.980;8.358;2022-07-29T12:36:53;40.87;25.29
72277;SHT30;61204;49.980;8.358;2022-07-29T12:39:27;41.45;24.53
72277;SHT30;61204;49.980;8.358;2022-07-29T12:41:55;42.28;23.84
72277;SHT30;61204;49.980;8.358;2022-07-29T12:44:21;42.03;24.32
72277;SHT30;61204;49.980;8.358;2022-07-29T12:47:04;43.14;23.93
72277;SHT30;61204;49.980;8.358;2022-07-29T12:49:32;43.49;23.79
72277;SHT30;61204;49.980;8.358;2022-07-29T12:51:58;44.42;22.63
72277;SHT30;61204;49.980;8.358;2022-07-29T12:54:23;43.83;22.71
72277;SHT30;61204;49.980;8.358;2022-07-29T12:56:58;41.65;24.23
72277;SHT30;61204;49.980;8.358;2022-07-29T12:59:27;41.24;24.67
72277;SHT30;61204;49.980;8.358;2022-07-29T13:01:52;41.73;25.07
72277;SHT30;61204;49.980;8.358;2022-07-29T13:04:32;42.67;24.20
72277;SHT30;61204;49.980;8.358;2022-07-29T13:07:08;43.39;23.74
72277;SHT30;61204;49.980;8.358;2022-07-29T13:09:45;42.28;24.30
72277;SHT30;61204;49.980;8.358;2022-07-29T13:12:13;41.39;25.48
72277;SHT30;61204;49.980;8.358;2022-07-29T13:14:48;42.04;24.54
72277;SHT30;61204;49.980;8.358;2022-07-29T13:17:21;41.37;24.98
72277;SHT30;61204;49.980;8.358;2022-07-29T13:20:11;41.25;24.70
72277;SHT30;61204;49.980;8.358;2022-07-29T13:22:47;40.98;25.43
72277;SHT30;61204;49.980;8.358;2022-07-29T13:25:14;41.27;24.62
72277;SHT30;61204;49.980;8.358;2022-07-29T13:28:13;39.83;25.92
72277;SHT30;61204;49.980;8.358;2022-07-29T13:30:40;39.30;26.68
72277;SHT30;61204;49.980;8.358;2022-07-29T13:33:17;38.67;27.02
72277;SHT30;61204;49.980;8.358;2022-07-29T13:35:46;38.15;27.39
72277;SHT30;61204;49.980;8.358;2022-07-29T13:38:12;36.93;28.23
72277;SHT30;61204;49.980;8.358;2022-07-29T13:40:38;36.12;29.58
72277;SHT30;61204;49.980;8.358;2022-07-29T13:43:10;35.94;30.10
72277;SHT30;61204;49.980;8.358;2022-07-29T13:45:36;36.15;29.55
72277;SHT30;61204;49.980;8.358;2022-07-29T13:48:07;36.43;29.87
72277;SHT30;61204;49.980;8.358;2022-07-29T13:50:32;36.63;30.57
72277;SHT30;61204;49.980;8.358;2022-07-29T13:53:05;36.29;31.14
72277;SHT30;61204;49.980;8.358;2022-07-29T13:55:31;36.03;30.52
72277;SHT30;61204;49.980;8.358;2022-07-29T13:57:59;35.38;31.56
72277;SHT30;61204;49.980;8.358;2022-07-29T14:00:25;35.29;32.40
72277;SHT30;61204;49.980;8.358;2022-07-29T14:02:53;35.10;33.09
72277;SHT30;61204;49.980;8.358;2022-07-29T14:05:24;35.35;33.07
72277;SHT30;61204;49.980;8.358;2022-07-29T14:07:50;34.89;34.01
72277;SHT30;61204;49.980;8.358;2022-07-29T14:10:15;34.93;33.70
72277;SHT30;61204;49.980;8.358;2022-07-29T14:12:43;34.83;34.21
72277;SHT30;61204;49.980;8.358;2022-07-29T14:15:09;34.68;34.55
72277;SHT30;61204;49.980;8.358;2022-07-29T14:17:34;33.92;35.54
72277;SHT30;61204;49.980;8.358;2022-07-29T14:20:00;33.39;36.41
72277;SHT30;61204;49.980;8.358;2022-07-29T14:22:28;33.27;36.76
72277;SHT30;61204;49.980;8.358;2022-07-29T14:24:55;32.94;37.70
72277;SHT30;61204;49.980;8.358;2022-07-29T14:27:22;33.14;37.69
72277;SHT30;61204;49.980;8.358;2022-07-29T14:29:48;32.57;36.46
72277;SHT30;61204;49.980;8.358;2022-07-29T14:32:21;32.56;36.15
72277;SHT30;61204;49.980;8.358;2022-07-29T14:34:46;32.22;36.61
72277;SHT30;61204;49.980;8.358;2022-07-29T14:37:14;32.32;36.41
72277;SHT30;61204;49.980;8.358;2022-07-29T14:39:40;31.97;37.23
72277;SHT30;61204;49.980;8.358;2022-07-29T14:42:10;32.21;37.13
72277;SHT30;61204;49.980;8.358;2022-07-29T14:44:36;32.28;37.45
72277;SHT30;61204;49.980;8.358;2022-07-29T14:47:04;32.00;37.75
72277;SHT30;61204;49.980;8.358;2022-07-29T14:49:29;31.87;38.14
72277;SHT30;61204;49.980;8.358;2022-07-29T14:51:55;31.93;38.06
72277;SHT30;61204;49.980;8.358;2022-07-29T14:54:21;31.95;38.15
72277;SHT30;61204;49.980;8.358;2022-07-29T14:56:47;31.88;38.15
72277;SHT30;61204;49.980;8.358;2022-07-29T14:59:14;31.90;38.37
72277;SHT30;61204;49.980;8.358;2022-07-29T15:01:40;31.51;38.88
72277;SHT30;61204;49.980;8.358;2022-07-29T15:04:06;31.81;38.54
72277;SHT30;61204;49.980;8.358;2022-07-29T15:06:34;32.21;38.00
72277;SHT30;61204;49.980;8.358;2022-07-29T15:09:01;32.33;37.84
72277;SHT30;61204;49.980;8.358;2022-07-29T15:11:27;32.40;37.63
72277;SHT30;61204;49.980;8.358;2022-07-29T15:13:52;32.32;38.12
72277;SHT30;61204;49.980;8.358;2022-07-29T15:53:52;29.13;41.52
72277;SHT30;61204;49.980;8.358;2022-07-29T15:56:17;29.09;41.96
72277;SHT30;61204;49.980;8.358;2022-07-29T15:58:43;28.74;42.70
72277;SHT30;61204;49.980;8.358;2022-07-29T16:01:09;28.70;41.84
72277;SHT30;61204;49.980;8.358;2022-07-29T16:03:44;28.71;41.94
72277;SHT30;61204;49.980;8.358;2022-07-29T16:13:44;29.04;39.78
72277;SHT30;61204;49.980;8.358;2022-07-29T16:16:09;29.47;38.83
72277;SHT30;61204;49.980;8.358;2022-07-29T16:18:35;29.68;38.56
72277;SHT30;61204;49.980;8.358;2022-07-29T16:21:01;29.88;37.07
72277;SHT30;61204;49.980;8.358;2022-07-29T16:23:26;29.94;37.16
72277;SHT30;61204;49.980;8.358;2022-07-29T16:25:52;29.98;36.86
72277;SHT30;61204;49.980;8.358;2022-07-29T16:28:18;29.91;36.79
72277;SHT30;61204;49.980;8.358;2022-07-29T16:30:43;30.05;37.25
72277;SHT30;61204;49.980;8.358;2022-07-29T16:33:09;30.26;36.94
72277;SHT30;61204;49.980;8.358;2022-07-29T16:35:35;30.44;37.71
72277;SHT30;61204;49.980;8.358;2022-07-29T16:38:03;30.41;37.78
72277;SHT30;61204;49.980;8.358;2022-07-29T16:40:28;30.33;39.56
72277;SHT30;61204;49.980;8.358;2022-07-29T16:42:54;30.08;38.71
72277;SHT30;61204;49.980;8.358;2022-07-29T16:45:20;29.78;39.02
72277;SHT30;61204;49.980;8.358;2022-07-29T16:47:45;29.70;38.86
72277;SHT30;61204;49.980;8.358;2022-07-29T16:50:11;29.61;39.13
72277;SHT30;61204;49.980;8.358;2022-07-29T16:52:37;29.37;39.65
72277;SHT30;61204;49.980;8.358;2022-07-29T16:55:03;29.13;40.04
72277;SHT30;61204;49.980;8.358;2022-07-29T16:57:29;29.05;40.18
72277;SHT30;61204;49.980;8.358;2022-07-29T16:59:55;28.88;40.72
72277;SHT30;61204;49.980;8.358;2022-07-29T17:02:20;28.78;40.85
72277;SHT30;61204;49.980;8.358;2022-07-29T17:22:54;26.57;51.05
72277;SHT30;61204;49.980;8.358;2022-07-29T17:25:20;26.36;51.71